createdAt,value
2018-12-04T00:01:18.094Z,2.80
2018-12-04T00:04:06.264Z,2.80
2018-12-04T00:22:04.451Z,2.80
2018-12-04T00:34:36.302Z,2.80
2018-12-04T00:37:24.730Z,2.93
2018-12-04T00:43:59.414Z,3.90
2018-12-04T00:46:28.637Z,3.60
2018-12-04T00:48:57.307Z,3.83
2018-12-04T00:51:25.986Z,3.40
2018-12-04T00:53:55.292Z,3.53
2018-12-04T00:56:24.110Z,3.27
2018-12-04T00:58:52.951Z,3.60
2018-12-04T01:01:21.894Z,3.87
2018-12-04T01:03:50.558Z,3.50
2018-12-04T01:06:19.299Z,3.90
2018-12-04T01:08:48.242Z,3.70
2018-12-04T01:11:17.120Z,3.00
2018-12-04T01:13:46.151Z,3.63
2018-12-04T01:16:15.114Z,3.30
2018-12-04T01:18:43.907Z,3.27
2018-12-04T01:21:12.508Z,3.50
2018-12-04T01:23:41.482Z,3.80
2018-12-04T01:26:10.302Z,3.73
2018-12-04T01:28:39.043Z,3.50
2018-12-04T01:31:07.766Z,3.87
2018-12-04T01:33:36.877Z,3.50
2018-12-04T01:36:06.418Z,3.30
2018-12-04T01:38:35.328Z,3.73
2018-12-04T01:41:04.044Z,3.53
2018-12-04T01:43:33.145Z,2.93
2018-12-04T01:46:02.472Z,3.33
2018-12-04T01:48:31.473Z,3.23
2018-12-04T01:51:00.145Z,3.40
2018-12-04T01:53:28.960Z,3.10
2018-12-04T01:55:59.433Z,3.50
2018-12-04T01:58:28.129Z,3.40
2018-12-04T02:00:56.753Z,2.97
2018-12-04T02:03:25.887Z,3.37
2018-12-04T02:05:55.031Z,3.43
2018-12-04T02:08:23.886Z,3.83
2018-12-04T02:10:52.973Z,3.80
2018-12-04T02:13:22.384Z,3.73
2018-12-04T02:15:51.451Z,3.97
2018-12-04T02:18:20.638Z,3.50
2018-12-04T02:20:49.367Z,3.23
2018-12-04T02:23:18.002Z,3.47
2018-12-04T02:25:47.620Z,3.57
2018-12-04T02:28:16.914Z,3.73
2018-12-04T02:30:45.620Z,4.07
2018-12-04T02:33:14.874Z,3.50
2018-12-04T02:35:43.559Z,4.87
2018-12-04T02:38:12.159Z,4.57
2018-12-04T02:40:41.593Z,3.53
2018-12-04T02:43:10.341Z,3.43
2018-12-04T02:45:38.926Z,4.37
2018-12-04T02:48:08.007Z,5.10
2018-12-04T02:50:36.752Z,3.77
2018-12-04T02:53:05.372Z,3.33
2018-12-04T02:55:34.634Z,4.77
2018-12-04T02:58:03.477Z,4.27
2018-12-04T03:00:32.103Z,3.87
2018-12-04T03:03:00.664Z,3.63
2018-12-04T03:05:29.661Z,4.10
2018-12-04T03:07:58.643Z,3.30
2018-12-04T03:10:27.609Z,3.80
2018-12-04T03:12:56.352Z,3.97
2018-12-04T03:15:24.638Z,3.17
2018-12-04T03:17:53.459Z,3.73
2018-12-04T03:20:22.146Z,3.67
2018-12-04T03:22:50.933Z,3.43
2018-12-04T03:25:19.953Z,4.17
2018-12-04T03:27:49.218Z,3.70
2018-12-04T03:30:19.205Z,3.20
2018-12-04T03:32:48.317Z,2.90
2018-12-04T03:35:17.079Z,3.17
2018-12-04T03:37:47.057Z,3.60
2018-12-04T03:40:16.488Z,3.90
2018-12-04T03:42:45.365Z,3.83
2018-12-04T03:45:13.711Z,4.33
2018-12-04T03:47:42.671Z,3.27
2018-12-04T03:50:11.591Z,4.37
2018-12-04T03:52:40.526Z,2.90
2018-12-04T03:55:09.489Z,3.30
2018-12-04T03:57:38.916Z,3.10
2018-12-04T04:00:07.720Z,4.00
2018-12-04T04:02:37.580Z,3.60
2018-12-04T04:05:06.799Z,3.47
2018-12-04T04:07:35.414Z,2.90
2018-12-04T04:10:05.666Z,3.43
2018-12-04T04:12:34.742Z,3.80
2018-12-04T04:15:03.581Z,2.63
2018-12-04T04:17:32.296Z,2.83
2018-12-04T04:20:01.374Z,3.00
2018-12-04T04:22:37.069Z,3.03
2018-12-04T04:25:06.294Z,2.73
2018-12-04T04:27:36.597Z,3.70
2018-12-04T04:30:05.639Z,2.90
2018-12-04T04:32:37.921Z,2.80
2018-12-04T04:35:06.587Z,3.00
2018-12-04T04:37:36.406Z,2.60
2018-12-04T04:40:07.127Z,2.90
2018-12-04T04:42:35.507Z,2.93
2018-12-04T04:45:04.405Z,3.03
2018-12-04T04:47:32.786Z,3.47
2018-12-04T04:50:01.466Z,3.80
2018-12-04T04:52:30.881Z,3.07
2018-12-04T04:55:00.251Z,2.40
2018-12-04T04:57:28.662Z,3.57
2018-12-04T05:00:06.793Z,2.83
2018-12-04T05:02:38.585Z,2.93
2018-12-04T05:05:13.041Z,2.67
2018-12-04T05:07:52.627Z,3.37
2018-12-04T05:10:21.970Z,2.93
2018-12-04T05:12:55.943Z,2.70
2018-12-04T05:15:24.685Z,3.20
2018-12-04T05:17:53.975Z,3.73
2018-12-04T05:20:22.703Z,3.47
2018-12-04T05:22:51.950Z,3.37
2018-12-04T05:25:21.234Z,3.87
2018-12-04T05:27:49.941Z,3.53
2018-12-04T05:30:19.227Z,3.17
2018-12-04T05:32:48.097Z,3.33
2018-12-04T05:35:16.312Z,3.13
2018-12-04T05:37:44.756Z,3.60
2018-12-04T05:40:13.676Z,3.97
2018-12-04T05:42:42.540Z,4.20
2018-12-04T05:45:11.659Z,3.33
2018-12-04T05:47:40.464Z,3.37
2018-12-04T05:50:09.400Z,3.30
2018-12-04T05:52:40.243Z,3.77
2018-12-04T05:55:10.064Z,3.80
2018-12-04T05:57:39.638Z,4.20
2018-12-04T06:00:09.699Z,3.50
2018-12-04T06:02:38.653Z,3.50
2018-12-04T06:05:07.563Z,3.70
2018-12-04T06:07:37.281Z,3.40
2018-12-04T06:10:07.028Z,3.37
2018-12-04T06:12:36.256Z,3.10
2018-12-04T06:15:06.713Z,3.60
2018-12-04T06:17:35.752Z,3.83
2018-12-04T06:20:06.931Z,4.07
2018-12-04T06:22:39.852Z,3.60
2018-12-04T06:32:14.566Z,3.80
2018-12-04T06:34:45.471Z,4.07
2018-12-04T06:37:14.625Z,3.57
2018-12-04T06:39:43.996Z,4.67
2018-12-04T06:42:14.852Z,4.43
2018-12-04T06:44:46.743Z,4.30
2018-12-04T06:47:16.716Z,4.27
2018-12-04T06:49:47.918Z,4.37
2018-12-04T06:52:17.237Z,4.80
2018-12-04T06:54:47.914Z,4.67
2018-12-04T06:57:19.189Z,4.33
2018-12-04T06:59:50.647Z,4.43
2018-12-04T07:02:21.026Z,4.07
2018-12-04T07:04:50.070Z,3.53
2018-12-04T07:07:21.607Z,4.07
2018-12-04T07:09:51.892Z,3.53
2018-12-04T07:12:21.683Z,4.93
2018-12-04T07:14:51.165Z,4.00
2018-12-04T07:20:30.385Z,3.93
2018-12-04T07:22:59.444Z,5.63
2018-12-04T07:25:29.387Z,4.10
2018-12-04T07:27:58.394Z,3.63
2018-12-04T07:30:27.681Z,3.03
2018-12-04T07:32:56.405Z,4.03
2018-12-04T07:35:25.317Z,3.70
2018-12-04T07:37:54.223Z,3.67
2018-12-04T07:40:23.376Z,3.50
2018-12-04T07:42:52.993Z,3.20
2018-12-04T07:45:24.702Z,4.13
2018-12-04T07:47:55.562Z,4.07
2018-12-04T07:50:25.162Z,4.03
2018-12-04T07:52:54.147Z,3.40
2018-12-04T07:55:23.149Z,3.60
2018-12-04T07:57:56.738Z,4.10
2018-12-04T08:00:26.065Z,4.13
2018-12-04T08:02:56.499Z,3.80
2018-12-04T08:05:26.810Z,3.63
2018-12-04T08:07:57.315Z,4.57
2018-12-04T08:10:30.642Z,3.47
2018-12-04T08:13:04.033Z,3.60
2018-12-04T08:15:33.919Z,3.40
2018-12-04T08:18:08.329Z,2.70
2018-12-04T08:20:38.228Z,2.70
2018-12-04T08:23:09.840Z,2.80
2018-12-04T08:25:39.430Z,3.00
2018-12-04T08:28:09.329Z,2.83
2018-12-04T08:30:39.083Z,2.60
2018-12-04T08:33:08.641Z,1.90
2018-12-04T08:35:37.878Z,2.40
2018-12-04T08:38:06.822Z,2.10
2018-12-04T08:40:35.218Z,3.10
2018-12-04T08:43:04.079Z,2.80
2018-12-04T08:45:32.847Z,2.40
2018-12-04T08:48:02.596Z,2.40
2018-12-04T08:50:31.294Z,2.80
2018-12-04T08:53:00.556Z,2.70
2018-12-04T08:55:29.507Z,2.83
2018-12-04T08:57:58.019Z,2.67
2018-12-04T09:00:26.939Z,2.80
2018-12-04T09:02:56.962Z,2.83
2018-12-04T09:05:25.780Z,2.60
2018-12-04T09:07:54.099Z,3.20
2018-12-04T09:10:22.701Z,4.20
2018-12-04T09:12:51.310Z,2.80
2018-12-04T09:15:20.506Z,3.63
2018-12-04T09:18:10.166Z,4.13
2018-12-04T09:20:39.151Z,3.43
2018-12-04T09:23:07.598Z,4.63
2018-12-04T09:25:37.045Z,3.80
2018-12-04T09:28:05.988Z,3.50
2018-12-04T09:30:35.339Z,3.17
2018-12-04T09:33:05.883Z,3.67
2018-12-04T09:35:35.627Z,3.80
2018-12-04T09:38:04.721Z,3.80
2018-12-04T09:40:33.470Z,3.10
2018-12-04T09:43:04.302Z,3.87
2018-12-04T09:45:35.949Z,3.30
2018-12-04T09:48:06.053Z,3.57
2018-12-04T09:50:35.526Z,4.30
2018-12-04T09:53:04.747Z,3.23
2018-12-04T09:55:34.787Z,3.70
2018-12-04T09:58:04.729Z,3.90
2018-12-04T10:00:33.485Z,3.70
2018-12-04T10:03:02.622Z,3.17
2018-12-04T10:05:32.171Z,4.17
2018-12-04T10:08:01.985Z,3.00
2018-12-04T10:10:31.686Z,3.53
2018-12-04T10:13:00.696Z,3.67
2018-12-04T10:15:29.203Z,3.67
2018-12-04T10:17:57.814Z,3.77
2018-12-04T10:20:27.288Z,3.63
2018-12-04T10:22:56.883Z,2.83
2018-12-04T10:25:25.815Z,3.00
2018-12-04T10:27:54.272Z,3.10
2018-12-04T10:30:22.857Z,3.00
2018-12-04T10:32:52.187Z,3.00
2018-12-04T10:35:21.716Z,4.03
2018-12-04T10:37:51.349Z,3.23
2018-12-04T10:40:20.120Z,3.27
2018-12-04T10:42:49.437Z,3.40
2018-12-04T10:45:19.884Z,3.90
2018-12-04T10:47:48.543Z,3.50
2018-12-04T10:50:17.302Z,2.90
2018-12-04T10:52:46.135Z,3.33
2018-12-04T10:55:14.847Z,3.77
2018-12-04T10:57:45.818Z,3.57
2018-12-04T11:00:20.685Z,3.13
2018-12-04T11:02:49.593Z,3.27
2018-12-04T11:05:18.677Z,3.17
2018-12-04T11:07:48.141Z,3.30
2018-12-04T11:10:18.106Z,3.10
2018-12-04T11:12:47.607Z,2.77
2018-12-04T11:15:17.035Z,3.20
2018-12-04T11:17:48.103Z,3.03
2018-12-04T11:20:17.092Z,3.20
2018-12-04T11:22:46.963Z,3.33
2018-12-04T11:25:19.607Z,3.80
2018-12-04T11:27:48.329Z,2.50
2018-12-04T11:30:18.247Z,3.10
2018-12-04T11:32:50.290Z,2.80
2018-12-04T11:35:22.062Z,2.53
2018-12-04T11:37:52.405Z,3.20
2018-12-04T11:40:23.125Z,3.30
2018-12-04T11:42:51.840Z,3.57
2018-12-04T11:45:21.107Z,2.83
2018-12-04T11:47:51.015Z,3.27
2018-12-04T11:50:19.955Z,3.23
2018-12-04T11:52:50.249Z,3.57
2018-12-04T11:55:20.379Z,2.97
2018-12-04T11:57:51.011Z,2.80
2018-12-04T12:00:22.981Z,3.33
2018-12-04T12:02:51.724Z,3.60
2018-12-04T12:05:19.795Z,2.83
2018-12-04T12:07:47.856Z,3.83
2018-12-04T12:10:16.290Z,3.10
2018-12-04T12:12:45.177Z,3.77
2018-12-04T12:15:17.913Z,3.17
2018-12-04T12:17:43.423Z,3.20
2018-12-04T12:20:11.889Z,3.27
2018-12-04T12:22:40.060Z,3.43
2018-12-04T12:25:08.172Z,4.83
2018-12-04T12:36:33.490Z,3.83
2018-12-04T12:39:01.593Z,3.30
2018-12-04T12:41:29.669Z,3.60
2018-12-04T12:46:25.739Z,3.37
2018-12-04T12:48:54.776Z,3.17
2018-12-04T12:51:23.611Z,3.10
2018-12-04T12:53:52.799Z,3.07
2018-12-04T12:56:21.534Z,3.20
2018-12-04T12:58:50.199Z,3.17
2018-12-04T13:01:19.634Z,4.07
2018-12-04T13:03:48.314Z,3.30
2018-12-04T13:06:16.851Z,3.10
2018-12-04T13:08:46.758Z,3.07
2018-12-04T13:11:15.729Z,2.93
2018-12-04T13:13:45.732Z,3.53
2018-12-04T13:16:14.804Z,3.13
2018-12-04T13:18:44.080Z,2.93
2018-12-04T13:21:14.673Z,3.40
2018-12-04T13:23:44.678Z,3.20
2018-12-04T13:26:13.700Z,3.50
2018-12-04T13:28:42.109Z,2.90
2018-12-04T13:31:12.282Z,3.07
2018-12-04T13:33:42.114Z,3.23
2018-12-04T13:36:10.430Z,2.67
2018-12-04T13:38:41.716Z,2.30
2018-12-04T13:41:11.421Z,3.17
2018-12-04T13:43:39.962Z,2.83
2018-12-04T13:46:08.779Z,3.00
2018-12-04T13:48:37.334Z,3.03
2018-12-04T13:51:05.905Z,2.80
2018-12-04T13:53:35.517Z,2.67
2018-12-04T13:56:05.703Z,2.80
2018-12-04T13:58:34.284Z,2.60
2018-12-04T14:01:02.363Z,2.83
2018-12-04T14:03:30.417Z,3.00
2018-12-04T14:05:59.045Z,2.93
2018-12-04T14:08:27.249Z,2.80
2018-12-04T14:10:55.432Z,3.43
2018-12-04T14:13:23.878Z,2.93
2018-12-04T14:15:52.149Z,3.43
2018-12-04T14:18:21.806Z,3.07
2018-12-04T14:20:50.103Z,2.97
2018-12-04T14:23:18.173Z,3.07
2018-12-04T14:25:46.706Z,3.10
2018-12-04T14:28:14.911Z,3.37
2018-12-04T14:30:43.596Z,3.10
2018-12-04T14:33:11.671Z,3.20
2018-12-04T14:35:39.728Z,3.03
2018-12-04T14:38:08.085Z,2.97
2018-12-04T14:40:36.201Z,2.97
2018-12-04T14:43:04.285Z,3.17
2018-12-04T14:45:32.696Z,3.17
2018-12-04T14:48:01.020Z,3.37
2018-12-04T14:50:29.469Z,2.80
2018-12-04T14:52:57.681Z,3.37
2018-12-04T14:55:25.766Z,2.97
2018-12-04T14:57:53.868Z,3.43
2018-12-04T15:00:21.941Z,3.70
2018-12-04T15:02:49.977Z,3.10
2018-12-04T15:05:18.423Z,3.03
2018-12-04T15:07:46.482Z,3.03
2018-12-04T15:10:14.550Z,3.20
2018-12-04T15:12:43.215Z,3.40
2018-12-04T15:15:11.295Z,3.23
2018-12-04T15:17:40.770Z,3.80
2018-12-04T15:20:09.252Z,3.37
2018-12-04T15:22:37.348Z,3.23
2018-12-04T15:25:05.798Z,3.27
2018-12-04T15:27:33.864Z,3.30
2018-12-04T15:30:01.950Z,2.97
2018-12-04T15:32:30.465Z,3.57
2018-12-04T15:34:58.641Z,3.03
2018-12-04T15:37:26.731Z,3.20
2018-12-04T15:39:55.299Z,2.53
2018-12-04T15:42:23.498Z,2.63
2018-12-04T15:44:51.562Z,2.50
2018-12-04T15:47:20.030Z,2.90
2018-12-04T15:49:48.457Z,2.77
2018-12-04T15:52:17.009Z,2.60
2018-12-04T15:54:45.093Z,2.47
2018-12-04T15:57:13.354Z,2.70
2018-12-04T15:59:41.810Z,2.70
2018-12-04T16:02:10.404Z,2.60
2018-12-04T16:04:38.576Z,2.67
2018-12-04T16:07:06.736Z,2.83
2018-12-04T16:09:35.355Z,3.13
2018-12-04T16:12:04.112Z,3.13
2018-12-04T16:14:32.164Z,3.23
2018-12-04T16:17:00.291Z,2.60
2018-12-04T16:19:28.390Z,3.10
2018-12-04T16:21:56.506Z,2.90
2018-12-04T16:24:24.592Z,3.23
2018-12-04T16:26:52.799Z,3.00
2018-12-04T16:29:20.920Z,3.30
2018-12-04T16:31:49.097Z,3.00
2018-12-04T16:34:17.435Z,3.50
2018-12-04T16:36:45.599Z,3.40
2018-12-04T16:39:13.724Z,3.00
2018-12-04T16:41:41.868Z,3.10
2018-12-04T16:44:09.935Z,3.43
2018-12-04T16:46:38.016Z,3.40
2018-12-04T16:49:06.113Z,3.33
2018-12-04T16:51:34.187Z,3.57
2018-12-04T16:54:02.433Z,3.30
2018-12-04T16:56:30.543Z,3.40
2018-12-04T16:58:58.612Z,4.10
2018-12-04T17:01:26.668Z,3.23
2018-12-04T17:03:54.989Z,3.23
2018-12-04T17:06:23.452Z,3.40
2018-12-04T17:08:51.515Z,3.33
2018-12-04T17:11:19.582Z,3.30
2018-12-04T17:13:48.327Z,3.17
2018-12-04T17:16:16.423Z,3.20
2018-12-04T17:18:44.937Z,3.50
2018-12-04T17:21:12.991Z,3.00
2018-12-04T17:23:41.055Z,3.20
2018-12-04T17:26:09.292Z,3.07
2018-12-04T17:28:37.540Z,3.30
2018-12-04T17:31:05.625Z,3.20
2018-12-04T17:33:33.973Z,3.20
2018-12-04T17:36:03.377Z,4.80
2018-12-04T17:38:33.244Z,5.03
2018-12-04T17:41:01.332Z,4.50
2018-12-04T17:43:29.406Z,3.80
2018-12-04T17:45:57.469Z,3.30
2018-12-04T17:48:25.923Z,4.00
2018-12-04T17:50:54.897Z,4.53
2018-12-04T17:53:23.318Z,3.63
2018-12-04T17:55:52.707Z,4.10
2018-12-04T17:58:20.937Z,2.73
2018-12-04T18:00:49.373Z,3.33
2018-12-04T18:03:18.098Z,2.97
2018-12-04T18:05:46.337Z,3.03
2018-12-04T18:08:15.894Z,2.97
2018-12-04T18:10:44.077Z,3.17
2018-12-04T18:13:13.904Z,3.30
2018-12-04T18:15:41.964Z,3.00
2018-12-04T18:18:10.311Z,3.43
2018-12-04T18:20:39.359Z,3.10
2018-12-04T18:23:07.503Z,3.17
2018-12-04T18:25:36.596Z,3.27
2018-12-04T18:28:04.734Z,3.07
2018-12-04T18:30:33.266Z,3.20
2018-12-04T18:33:01.976Z,3.50
2018-12-04T18:35:30.515Z,2.90
2018-12-04T18:37:58.603Z,3.80
2018-12-04T18:40:26.717Z,4.10
2018-12-04T18:42:55.208Z,2.60
2018-12-04T18:45:23.574Z,2.90
2018-12-04T18:47:53.271Z,3.97
2018-12-04T18:50:22.113Z,3.10
2018-12-04T18:52:50.536Z,3.83
2018-12-04T18:55:21.068Z,3.10
2018-12-04T18:57:50.645Z,3.53
2018-12-04T19:00:18.764Z,3.00
2018-12-04T19:02:46.864Z,3.10
2018-12-04T19:05:15.165Z,3.37
2018-12-04T19:07:43.594Z,3.40
2018-12-04T19:10:12.078Z,3.13
2018-12-04T19:12:49.171Z,3.23
2018-12-04T19:15:35.984Z,3.30
2018-12-04T19:18:04.091Z,2.83
2018-12-04T19:20:36.590Z,3.03
2018-12-04T19:23:05.216Z,2.70
2018-12-04T19:25:33.277Z,3.70
2018-12-04T19:28:01.699Z,3.60
2018-12-04T19:30:29.791Z,2.80
2018-12-04T19:32:58.223Z,3.07
2018-12-04T19:35:26.827Z,3.80
2018-12-04T19:37:55.784Z,3.20
2018-12-04T19:40:26.337Z,3.10
2018-12-04T19:42:55.068Z,2.90
2018-12-04T19:45:23.228Z,2.90
2018-12-04T19:47:52.358Z,3.50
2018-12-04T19:50:22.340Z,3.27
2018-12-04T19:52:50.477Z,3.27
2018-12-04T19:55:18.892Z,3.60
2018-12-04T19:57:47.507Z,3.83
2018-12-04T20:00:15.943Z,3.90
2018-12-04T20:02:44.479Z,2.70
2018-12-04T20:05:13.792Z,4.20
2018-12-04T20:07:41.857Z,3.10
2018-12-04T20:10:10.896Z,3.17
2018-12-04T20:12:38.988Z,2.80
2018-12-04T20:15:07.481Z,3.37
2018-12-04T20:17:36.191Z,3.27
2018-12-04T20:20:05.844Z,3.10
2018-12-04T20:22:34.257Z,3.10
2018-12-04T20:25:02.784Z,3.00
2018-12-04T20:27:31.688Z,3.07
2018-12-04T20:30:00.042Z,3.10
2018-12-04T20:32:28.255Z,3.00
2018-12-04T20:34:56.646Z,3.40
2018-12-04T20:37:24.696Z,2.90
2018-12-04T20:39:53.193Z,3.10
2018-12-04T20:42:23.328Z,3.17
2018-12-04T20:44:51.424Z,3.40
2018-12-04T20:47:19.480Z,3.00
2018-12-04T20:49:47.542Z,2.80
2018-12-04T20:52:15.623Z,3.17
2018-12-04T20:54:44.286Z,2.93
2018-12-04T20:57:12.649Z,2.60
2018-12-04T20:59:40.688Z,2.87
2018-12-04T21:02:08.905Z,3.20
2018-12-04T21:04:36.960Z,2.40
2018-12-04T21:07:05.003Z,2.37
2018-12-04T21:09:33.453Z,2.80
2018-12-04T21:12:02.072Z,2.87
2018-12-04T21:14:30.137Z,2.67
2018-12-04T21:16:58.195Z,2.10
2018-12-04T21:19:26.289Z,2.60
2018-12-04T21:21:55.299Z,2.07
2018-12-04T21:24:23.825Z,2.20
2018-12-04T21:26:51.876Z,1.97
2018-12-04T21:29:25.680Z,1.80
2018-12-04T21:31:59.157Z,2.17
2018-12-04T21:34:32.903Z,1.80
2018-12-04T21:37:06.807Z,2.10
2018-12-04T21:39:36.827Z,1.90
2018-12-04T21:42:07.339Z,2.40
2018-12-04T21:44:41.632Z,2.10
2018-12-04T21:47:15.535Z,2.30
2018-12-04T21:49:44.461Z,2.20
2018-12-04T21:52:12.929Z,2.30
2018-12-04T21:54:40.984Z,2.10
2018-12-04T21:57:09.350Z,1.87
2018-12-04T21:59:37.383Z,2.13
2018-12-04T22:02:05.628Z,2.37
2018-12-04T22:04:34.224Z,2.17
2018-12-04T22:07:02.673Z,2.00
2018-12-04T22:09:30.717Z,2.23
2018-12-04T22:11:59.103Z,2.63
2018-12-04T22:14:27.172Z,1.97
2018-12-04T22:16:55.855Z,2.20
2018-12-04T22:19:24.376Z,1.83
2018-12-04T22:21:52.681Z,1.80
2018-12-04T22:24:21.177Z,2.57
2018-12-04T22:26:50.252Z,1.83
2018-12-04T22:29:18.319Z,2.00
2018-12-04T22:31:46.416Z,1.80
2018-12-04T22:34:14.467Z,1.70
2018-12-04T22:36:42.998Z,1.80
2018-12-04T22:39:11.065Z,2.00
2018-12-04T22:41:39.728Z,2.20
2018-12-04T22:44:08.144Z,2.00
2018-12-04T22:46:36.179Z,1.90
2018-12-04T22:49:04.891Z,1.70
2018-12-04T22:51:33.429Z,1.90
2018-12-04T22:54:02.439Z,1.80
2018-12-04T22:56:30.923Z,2.10
2018-12-04T22:58:59.348Z,2.30
2018-12-04T23:01:37.944Z,2.10
2018-12-04T23:04:07.186Z,2.20
2018-12-04T23:06:35.419Z,2.40
2018-12-04T23:09:07.258Z,2.60
2018-12-04T23:11:36.109Z,1.93
2018-12-04T23:14:04.464Z,2.70
2018-12-04T23:16:33.116Z,2.80
2018-12-04T23:19:01.165Z,3.50
2018-12-04T23:23:56.660Z,5.83
2018-12-04T23:26:25.222Z,6.27
2018-12-04T23:28:53.816Z,6.00
2018-12-04T23:31:22.349Z,7.17
2018-12-04T23:33:51.088Z,6.20
2018-12-04T23:36:19.532Z,7.47
2018-12-04T23:38:47.583Z,8.17
2018-12-04T23:41:16.509Z,8.40
2018-12-04T23:43:45.160Z,8.40
2018-12-04T23:46:13.471Z,8.60
2018-12-04T23:48:42.545Z,8.20
2018-12-04T23:51:11.031Z,9.20
2018-12-04T23:53:39.492Z,9.50
2018-12-04T23:56:07.871Z,9.30
2018-12-04T23:58:36.438Z,8.93
